Time;durP1;ratioP1;P1;durP2;ratioP2;P2;SDS_P1;SDS_P2;PMS_P1;PMS_P2;Temp;Humidity;BMP_temperature;BMP_pressure;BME280_temperature;BME280_humidity;BME280_pressure;Samples;Min_cycle;Max_cycle;Signal;HPM_P1;HPM_P2
2022/07/24 00:00:13;;;;;;;;;;;18.30;77.50;;;;;;5036721;28;19909;-78
2022/07/24 00:02:39;;;;;;;;;;;18.30;78.00;;;;;;5046144;28;19932;-78
2022/07/24 00:05:04;;;;;;;;;;;18.20;78.10;;;;;;5033948;28;19983;-78
2022/07/24 00:07:30;;;;;;;;;;;18.20;78.00;;;;;;5035518;28;19909;-79
2022/07/24 00:09:55;;;;;;;;;;;18.20;77.80;;;;;;5035424;28;19909;-78
2022/07/24 00:12:21;;;;;;;;;;;18.20;78.30;;;;;;5034617;28;20384;-78
2022/07/24 00:14:46;;;;;;;;;;;18.10;78.40;;;;;;5035751;28;20382;-78
2022/07/24 00:17:12;;;;;;;;;;;18.10;78.10;;;;;;5034585;28;20281;-79
2022/07/24 00:19:37;;;;;;;;;;;18.10;78.00;;;;;;5033991;28;19948;-78
2022/07/24 00:22:03;;;;;;;;;;;18.10;78.50;;;;;;5017746;28;19913;-79
2022/07/24 00:24:29;;;;;;;;;;;18.00;79.00;;;;;;5036269;28;19914;-78
2022/07/24 00:26:54;;;;;;;;;;;18.00;78.90;;;;;;5036611;28;19909;-77
2022/07/24 00:29:19;;;;;;;;;;;18.00;79.00;;;;;;5032700;28;19913;-78
2022/07/24 00:31:45;;;;;;;;;;;17.90;79.40;;;;;;5016771;28;20379;-79
2022/07/24 00:34:10;;;;;;;;;;;17.90;79.20;;;;;;5027644;28;19913;-79
2022/07/24 00:36:36;;;;;;;;;;;17.90;79.10;;;;;;5016197;28;19921;-78
2022/07/24 00:39:02;;;;;;;;;;;17.90;79.00;;;;;;4997957;28;19929;-79
2022/07/24 00:41:27;;;;;;;;;;;18.00;78.80;;;;;;5028014;28;19963;-79
2022/07/24 00:44:02;;;;;;;;;;;18.00;78.50;;;;;;5018551;28;19913;-79
2022/07/24 00:46:27;;;;;;;;;;;18.00;78.80;;;;;;5032275;28;19909;-79
2022/07/24 00:48:53;;;;;;;;;;;17.90;79.00;;;;;;5035973;28;20063;-78
2022/07/24 00:51:18;;;;;;;;;;;17.90;79.30;;;;;;5019334;28;19962;-78
2022/07/24 00:53:44;;;;;;;;;;;17.80;79.80;;;;;;5019706;28;19909;-79
2022/07/24 00:56:10;;;;;;;;;;;17.80;79.90;;;;;;5019342;28;19920;-79
2022/07/24 00:58:35;;;;;;;;;;;17.80;79.40;;;;;;5043254;28;19913;-79
2022/07/24 01:01:01;;;;;;;;;;;17.80;79.00;;;;;;5033754;28;20416;-79
2022/07/24 01:03:26;;;;;;;;;;;17.80;79.00;;;;;;5019017;28;20007;-79
2022/07/24 01:05:52;;;;;;;;;;;17.70;79.30;;;;;;5037911;28;20266;-79
2022/07/24 01:08:17;;;;;;;;;;;17.70;79.40;;;;;;5020513;28;19967;-78
2022/07/24 01:10:43;;;;;;;;;;;17.70;79.60;;;;;;5018951;28;20299;-79
2022/07/24 01:13:09;;;;;;;;;;;17.70;79.90;;;;;;5037930;28;19944;-79
2022/07/24 01:15:34;;;;;;;;;;;17.60;79.80;;;;;;5034424;28;19921;-79
2022/07/24 01:18:01;;;;;;;;;;;17.60;79.50;;;;;;5016958;28;19909;-78
2022/07/24 01:20:26;;;;;;;;;;;17.60;79.40;;;;;;5015478;28;20393;-79
2022/07/24 01:22:52;;;;;;;;;;;17.70;79.50;;;;;;5016081;28;19963;-79
2022/07/24 01:25:17;;;;;;;;;;;17.70;79.10;;;;;;5016534;28;20003;-79
2022/07/24 01:27:43;;;;;;;;;;;17.60;79.30;;;;;;5024079;28;19955;-78
2022/07/24 01:30:09;;;;;;;;;;;17.60;79.70;;;;;;5033026;28;19952;-78
2022/07/24 01:32:34;;;;;;;;;;;17.60;79.30;;;;;;5012863;28;19921;-78
2022/07/24 01:35:00;;;;;;;;;;;17.60;79.20;;;;;;5008271;28;19920;-79
2022/07/24 01:37:25;;;;;;;;;;;17.60;79.20;;;;;;5007887;28;19913;-79
2022/07/24 01:39:51;;;;;;;;;;;17.60;79.00;;;;;;5035361;28;20040;-79
2022/07/24 01:42:16;;;;;;;;;;;17.50;78.90;;;;;;5017006;28;19924;-78
2022/07/24 01:44:42;;;;;;;;;;;17.50;79.30;;;;;;5032867;28;19976;-79
2022/07/24 01:47:07;;;;;;;;;;;17.50;79.30;;;;;;5005222;28;19920;-78
2022/07/24 01:49:33;;;;;;;;;;;17.50;79.30;;;;;;5034924;28;19924;-78
2022/07/24 01:51:58;;;;;;;;;;;17.40;79.30;;;;;;5017512;28;19913;-79
2022/07/24 01:54:24;;;;;;;;;;;17.40;79.40;;;;;;5017013;28;19924;-79
2022/07/24 01:56:49;;;;;;;;;;;17.40;79.10;;;;;;5017558;28;19921;-79
2022/07/24 01:59:15;;;;;;;;;;;17.50;78.50;;;;;;5016933;28;19917;-79
2022/07/24 02:01:40;;;;;;;;;;;17.40;79.10;;;;;;5017427;28;19952;-79
2022/07/24 02:04:06;;;;;;;;;;;17.50;78.90;;;;;;5013262;28;20445;-78
2022/07/24 02:06:31;;;;;;;;;;;17.40;79.10;;;;;;5036057;28;19976;-78
2022/07/24 02:08:57;;;;;;;;;;;17.40;79.30;;;;;;5015046;28;19913;-79
2022/07/24 02:11:22;;;;;;;;;;;17.40;79.30;;;;;;5013882;28;20286;-79
2022/07/24 02:13:48;;;;;;;;;;;17.40;80.00;;;;;;5017035;28;19913;-78
2022/07/24 02:16:13;;;;;;;;;;;17.30;80.10;;;;;;5035421;28;19909;-79
2022/07/24 02:18:39;;;;;;;;;;;17.30;80.20;;;;;;5015914;28;20338;-79
2022/07/24 02:21:04;;;;;;;;;;;17.30;80.20;;;;;;5016186;28;20381;-78
2022/07/24 02:23:30;;;;;;;;;;;17.30;80.60;;;;;;5015317;28;19909;-77
2022/07/24 02:25:55;;;;;;;;;;;17.30;81.00;;;;;;5029181;28;19917;-78
2022/07/24 02:28:21;;;;;;;;;;;17.30;81.20;;;;;;5036414;28;19986;-78
2022/07/24 02:30:46;;;;;;;;;;;17.30;81.20;;;;;;5014147;28;20255;-79
2022/07/24 02:33:12;;;;;;;;;;;17.20;81.00;;;;;;5032010;28;19913;-79
2022/07/24 02:35:37;;;;;;;;;;;17.30;80.60;;;;;;5032709;28;19920;-79
2022/07/24 02:38:03;;;;;;;;;;;17.30;80.80;;;;;;5033020;28;19964;-79
2022/07/24 02:40:29;;;;;;;;;;;17.30;81.20;;;;;;5012378;28;19959;-79
2022/07/24 02:42:55;;;;;;;;;;;17.30;80.70;;;;;;5010106;28;20378;-79
2022/07/24 02:45:20;;;;;;;;;;;17.30;80.00;;;;;;5011646;28;20374;-79
2022/07/24 02:47:47;;;;;;;;;;;17.30;80.10;;;;;;5015496;28;19928;-79
2022/07/24 02:50:13;;;;;;;;;;;17.30;80.10;;;;;;5013136;28;19921;-79
2022/07/24 02:52:38;;;;;;;;;;;17.30;79.80;;;;;;5011656;28;19940;-78
2022/07/24 02:55:04;;;;;;;;;;;17.30;79.90;;;;;;5011487;28;19957;-78
2022/07/24 02:57:30;;;;;;;;;;;17.30;79.90;;;;;;5025420;28;19920;-79
2022/07/24 02:59:55;;;;;;;;;;;17.20;80.00;;;;;;5010446;28;20001;-78
2022/07/24 03:02:21;;;;;;;;;;;17.20;80.10;;;;;;5012527;28;19913;-79
2022/07/24 03:04:46;;;;;;;;;;;17.20;79.70;;;;;;5031487;28;20313;-81
2022/07/24 03:07:12;;;;;;;;;;;17.20;79.30;;;;;;5013652;28;20417;-78
2022/07/24 03:09:37;;;;;;;;;;;17.20;79.40;;;;;;5010064;28;19921;-81
2022/07/24 03:12:03;;;;;;;;;;;17.20;79.30;;;;;;5031560;28;19923;-79
2022/07/24 03:14:28;;;;;;;;;;;17.30;78.80;;;;;;5014671;28;19928;-79
2022/07/24 03:16:54;;;;;;;;;;;17.40;78.30;;;;;;5011360;28;19956;-79
2022/07/24 03:19:19;;;;;;;;;;;17.30;78.30;;;;;;5013780;28;19917;-79
2022/07/24 03:21:45;;;;;;;;;;;17.30;78.40;;;;;;5013697;28;20357;-79
2022/07/24 03:24:10;;;;;;;;;;;17.30;78.60;;;;;;5010685;28;19971;-79
2022/07/24 03:26:36;;;;;;;;;;;17.30;78.70;;;;;;5013722;28;19913;-79
2022/07/24 03:29:01;;;;;;;;;;;17.30;78.90;;;;;;5017553;28;19910;-79
2022/07/24 03:31:27;;;;;;;;;;;17.30;78.80;;;;;;5011502;28;19928;-79
2022/07/24 03:33:52;;;;;;;;;;;17.30;78.80;;;;;;5034132;28;19921;-79
2022/07/24 03:36:19;;;;;;;;;;;17.30;78.50;;;;;;5025354;28;20397;-79
2022/07/24 03:38:44;;;;;;;;;;;17.30;78.60;;;;;;5011540;28;20008;-79
2022/07/24 03:41:09;;;;;;;;;;;17.40;77.30;;;;;;5022921;28;19998;-80
2022/07/24 03:43:35;;;;;;;;;;;17.50;77.20;;;;;;5038821;28;20281;-78
2022/07/24 03:46:00;;;;;;;;;;;17.50;77.30;;;;;;5022580;28;19921;-79
2022/07/24 03:48:26;;;;;;;;;;;17.40;77.10;;;;;;5040173;28;20060;-80
2022/07/24 03:50:51;;;;;;;;;;;17.30;77.50;;;;;;5035110;28;19928;-79
2022/07/24 03:53:17;;;;;;;;;;;17.40;77.40;;;;;;5038864;28;20385;-79
2022/07/24 03:55:42;;;;;;;;;;;17.30;78.00;;;;;;5014200;28;20350;-79
2022/07/24 03:58:08;;;;;;;;;;;17.30;78.20;;;;;;5043996;28;19920;-79
2022/07/24 04:00:33;;;;;;;;;;;17.30;78.50;;;;;;5022616;28;19913;-79
2022/07/24 04:02:59;;;;;;;;;;;17.40;77.90;;;;;;5020841;28;19929;-79
2022/07/24 04:05:24;;;;;;;;;;;17.40;77.40;;;;;;5036172;28;19943;-79
2022/07/24 04:07:50;;;;;;;;;;;17.40;77.50;;;;;;5019920;28;19960;-79
2022/07/24 04:10:15;;;;;;;;;;;17.40;77.90;;;;;;5020116;28;19913;-79
2022/07/24 04:12:41;;;;;;;;;;;17.50;77.80;;;;;;5019594;28;19955;-79
2022/07/24 04:15:06;;;;;;;;;;;17.50;77.90;;;;;;5020475;28;20664;-79
2022/07/24 04:17:32;;;;;;;;;;;17.50;77.90;;;;;;5038748;28;19985;-79
2022/07/24 04:19:57;;;;;;;;;;;17.50;78.20;;;;;;5012287;28;20398;-78
2022/07/24 04:22:23;;;;;;;;;;;17.50;77.90;;;;;;5036668;28;20255;-79
2022/07/24 04:24:48;;;;;;;;;;;17.50;78.10;;;;;;5034551;28;19917;-79
2022/07/24 04:27:14;;;;;;;;;;;17.60;78.20;;;;;;5038671;28;19909;-79
2022/07/24 04:29:39;;;;;;;;;;;17.60;78.20;;;;;;5024238;28;19913;-79
2022/07/24 04:32:05;;;;;;;;;;;17.60;78.20;;;;;;5032709;28;20322;-79
2022/07/24 04:34:30;;;;;;;;;;;17.60;78.00;;;;;;5034208;28;19913;-79
2022/07/24 04:36:56;;;;;;;;;;;17.60;78.30;;;;;;5024121;28;20390;-78
2022/07/24 04:39:21;;;;;;;;;;;17.70;78.20;;;;;;5024472;28;19913;-79
2022/07/24 04:41:47;;;;;;;;;;;17.70;78.30;;;;;;5021847;28;19917;-78
2022/07/24 04:44:12;;;;;;;;;;;17.80;77.80;;;;;;5038399;28;19962;-79
2022/07/24 04:46:37;;;;;;;;;;;17.80;77.80;;;;;;5017290;28;20259;-79
2022/07/24 04:49:03;;;;;;;;;;;17.90;78.00;;;;;;5017020;28;19956;-79
2022/07/24 04:51:28;;;;;;;;;;;17.90;77.70;;;;;;5033094;28;19913;-79
2022/07/24 04:53:54;;;;;;;;;;;17.90;77.50;;;;;;5034754;28;19968;-79
2022/07/24 04:56:20;;;;;;;;;;;18.00;77.30;;;;;;5018289;28;19916;-79
2022/07/24 04:58:46;;;;;;;;;;;18.00;76.80;;;;;;5036928;28;19913;-79
2022/07/24 05:01:12;;;;;;;;;;;18.10;76.70;;;;;;5023677;28;20019;-79
2022/07/24 05:03:37;;;;;;;;;;;18.10;76.50;;;;;;5021629;28;19952;-79
2022/07/24 05:06:02;;;;;;;;;;;18.10;75.90;;;;;;5023065;28;19917;-79
2022/07/24 05:08:28;;;;;;;;;;;18.10;75.90;;;;;;5034729;28;19953;-79
2022/07/24 05:10:53;;;;;;;;;;;18.20;75.60;;;;;;5034838;28;19913;-79
2022/07/24 05:13:19;;;;;;;;;;;18.30;75.60;;;;;;5038663;28;19921;-78
2022/07/24 05:15:44;;;;;;;;;;;18.40;74.90;;;;;;5042385;28;19916;-79
2022/07/24 05:18:10;;;;;;;;;;;18.50;74.40;;;;;;5042406;28;19913;-78
2022/07/24 05:20:35;;;;;;;;;;;18.50;74.00;;;;;;5042963;28;19960;-78
2022/07/24 05:23:01;;;;;;;;;;;18.60;73.60;;;;;;5035297;28;19979;-79
2022/07/24 05:25:26;;;;;;;;;;;18.60;73.60;;;;;;5041066;28;20262;-78
2022/07/24 05:27:52;;;;;;;;;;;18.80;72.80;;;;;;5036280;28;19909;-79
2022/07/24 05:30:17;;;;;;;;;;;18.80;72.60;;;;;;5017006;28;20370;-79
2022/07/24 05:32:44;;;;;;;;;;;18.90;72.40;;;;;;5034499;28;21331;-79
2022/07/24 05:35:10;;;;;;;;;;;19.00;71.70;;;;;;5033772;28;19956;-79
2022/07/24 05:37:35;;;;;;;;;;;19.20;71.30;;;;;;5027175;28;19913;-79
2022/07/24 05:40:01;;;;;;;;;;;19.30;70.50;;;;;;5014833;28;20247;-84
2022/07/24 05:42:26;;;;;;;;;;;19.30;70.50;;;;;;5026049;28;19920;-84
2022/07/24 05:44:52;;;;;;;;;;;19.40;70.20;;;;;;5041051;28;19996;-79
2022/07/24 05:47:17;;;;;;;;;;;19.50;70.00;;;;;;5035459;28;19909;-79
2022/07/24 05:49:43;;;;;;;;;;;19.50;70.10;;;;;;5028420;28;19917;-79
2022/07/24 05:52:08;;;;;;;;;;;19.50;70.00;;;;;;5015498;28;20059;-79
2022/07/24 05:54:34;;;;;;;;;;;19.60;70.10;;;;;;5021743;28;19996;-79
2022/07/24 05:56:59;;;;;;;;;;;19.60;69.60;;;;;;5011784;28;19909;-79
2022/07/24 05:59:24;;;;;;;;;;;19.80;69.00;;;;;;5021312;28;19917;-79
2022/07/24 06:01:50;;;;;;;;;;;19.80;68.50;;;;;;5013805;28;20263;-79
2022/07/24 06:04:15;;;;;;;;;;;19.90;68.50;;;;;;5031851;28;19976;-79
2022/07/24 06:06:41;;;;;;;;;;;20.00;68.20;;;;;;5031074;28;20354;-79
2022/07/24 06:09:06;;;;;;;;;;;20.10;67.90;;;;;;5015085;28;19925;-78
2022/07/24 06:11:32;;;;;;;;;;;20.10;68.10;;;;;;5012992;28;19932;-78
2022/07/24 06:13:57;;;;;;;;;;;20.10;68.00;;;;;;5013925;28;19913;-79
2022/07/24 06:16:23;;;;;;;;;;;20.10;67.90;;;;;;5033108;28;19913;-79
2022/07/24 06:18:48;;;;;;;;;;;20.30;67.30;;;;;;5014490;28;19913;-79
2022/07/24 06:21:14;;;;;;;;;;;20.40;67.10;;;;;;5013853;28;20313;-80
2022/07/24 06:23:39;;;;;;;;;;;20.40;67.20;;;;;;5004807;28;19913;-79
2022/07/24 06:26:05;;;;;;;;;;;20.50;67.10;;;;;;5036559;28;19960;-80
2022/07/24 06:28:30;;;;;;;;;;;20.60;67.30;;;;;;5023838;28;19974;-80
2022/07/24 06:30:57;;;;;;;;;;;20.70;66.70;;;;;;5037807;28;20092;-80
2022/07/24 06:33:22;;;;;;;;;;;21.00;66.10;;;;;;5023552;28;19913;-80
2022/07/24 06:35:48;;;;;;;;;;;21.00;65.20;;;;;;5036100;28;19916;-80
2022/07/24 06:38:13;;;;;;;;;;;20.90;66.40;;;;;;5020348;28;19913;-80
2022/07/24 06:40:39;;;;;;;;;;;21.00;66.10;;;;;;5019175;28;19956;-80
2022/07/24 06:43:04;;;;;;;;;;;21.00;65.70;;;;;;5045745;22;19978;-86
2022/07/24 06:45:33;;;;;;;;;;;21.10;66.30;;;;;;5042540;28;19963;-86
2022/07/24 06:48:02;;;;;;;;;;;21.20;65.60;;;;;;5033976;28;19909;-86
2022/07/24 06:50:28;;;;;;;;;;;21.30;65.30;;;;;;5028179;28;19913;-86
2022/07/24 06:52:54;;;;;;;;;;;21.50;65.30;;;;;;5035075;28;19954;-86
2022/07/24 06:55:19;;;;;;;;;;;21.60;65.40;;;;;;5034933;28;19980;-86
2022/07/24 06:57:44;;;;;;;;;;;21.60;64.90;;;;;;5052757;28;19922;-87
2022/07/24 07:00:11;;;;;;;;;;;21.60;65.80;;;;;;5031414;28;20292;-86
2022/07/24 07:02:36;;;;;;;;;;;21.60;64.30;;;;;;5013872;28;19913;-87
2022/07/24 07:05:03;;;;;;;;;;;21.80;64.60;;;;;;5052115;28;20292;-86
2022/07/24 07:07:28;;;;;;;;;;;21.80;63.60;;;;;;5029718;28;19917;-86
2022/07/24 07:09:54;;;;;;;;;;;21.90;62.70;;;;;;5021278;28;19917;-86
2022/07/24 07:12:19;;;;;;;;;;;22.00;62.90;;;;;;5021458;28;19948;-87
2022/07/24 07:14:45;;;;;;;;;;;22.10;62.50;;;;;;5022853;28;19909;-86
2022/07/24 07:17:10;;;;;;;;;;;22.20;62.20;;;;;;5014108;28;19921;-86
2022/07/24 07:19:36;;;;;;;;;;;22.20;62.40;;;;;;5012792;28;19913;-87
2022/07/24 07:22:01;;;;;;;;;;;22.40;61.80;;;;;;5015011;28;20562;-87
2022/07/24 07:24:26;;;;;;;;;;;22.40;61.20;;;;;;5018663;28;19958;-86
2022/07/24 07:26:52;;;;;;;;;;;22.50;61.30;;;;;;5015344;28;20381;-87
2022/07/24 07:29:17;;;;;;;;;;;22.60;61.00;;;;;;5021281;28;19949;-87
2022/07/24 07:31:43;;;;;;;;;;;22.70;60.30;;;;;;5013669;28;19920;-87
2022/07/24 07:34:08;;;;;;;;;;;22.80;60.00;;;;;;5009479;28;19909;-87
2022/07/24 07:36:34;;;;;;;;;;;22.90;59.30;;;;;;5006349;28;19932;-86
2022/07/24 07:39:02;;;;;;;;;;;22.90;58.70;;;;;;5008966;28;19920;-86
2022/07/24 07:41:31;;;;;;;;;;;23.00;59.50;;;;;;5014241;28;19913;-86
2022/07/24 07:44:03;;;;;;;;;;;23.10;60.00;;;;;;5015766;28;19918;-86
2022/07/24 07:46:34;;;;;;;;;;;23.10;59.60;;;;;;5013060;28;20284;-87
2022/07/24 07:49:08;;;;;;;;;;;23.10;58.70;;;;;;5047554;28;19913;-87
2022/07/24 07:51:33;;;;;;;;;;;23.10;58.70;;;;;;5018887;28;19919;-87
2022/07/24 07:54:17;;;;;;;;;;;23.10;58.70;;;;;;5009533;28;19909;-87
2022/07/24 07:56:45;;;;;;;;;;;23.20;58.50;;;;;;5010512;28;19960;-87
2022/07/24 07:59:17;;;;;;;;;;;23.30;58.70;;;;;;5025242;28;19912;-86
2022/07/24 08:01:52;;;;;;;;;;;;;;;;;;;;;
2022/07/24 08:04:26;;;;;;;;;;;23.50;57.70;;;;;;5034640;28;19913;-86
2022/07/24 08:06:57;;;;;;;;;;;23.60;57.30;;;;;;5014250;28;19914;-88
2022/07/24 08:09:26;;;;;;;;;;;23.70;57.40;;;;;;5022033;28;19921;-87
2022/07/24 08:12:03;;;;;;;;;;;23.70;57.30;;;;;;5003842;28;19914;-87
2022/07/24 08:14:36;;;;;;;;;;;23.70;57.30;;;;;;5008086;28;19913;-88
2022/07/24 08:17:02;;;;;;;;;;;23.90;57.60;;;;;;5019300;28;19952;-88
2022/07/24 08:19:42;;;;;;;;;;;23.90;57.30;;;;;;5052057;28;19909;-89
2022/07/24 08:22:08;;;;;;;;;;;24.00;56.70;;;;;;5043258;28;19912;-87
2022/07/24 08:24:37;;;;;;;;;;;24.00;56.00;;;;;;5065499;28;19992;-88
2022/07/24 08:27:11;;;;;;;;;;;24.10;56.70;;;;;;5037000;28;19917;-88
2022/07/24 08:29:40;;;;;;;;;;;24.10;55.10;;;;;;5033444;28;19917;-88
2022/07/24 08:32:07;;;;;;;;;;;24.20;54.40;;;;;;5019575;28;19917;-88
2022/07/24 08:34:33;;;;;;;;;;;24.30;54.60;;;;;;5017663;28;19913;-87
2022/07/24 08:36:59;;;;;;;;;;;24.30;54.80;;;;;;5040785;28;19959;-88
2022/07/24 08:39:27;;;;;;;;;;;24.30;54.80;;;;;;5019646;28;19959;-87
2022/07/24 08:41:58;;;;;;;;;;;24.40;54.20;;;;;;5022107;28;19961;-87
2022/07/24 08:44:29;;;;;;;;;;;24.50;54.40;;;;;;5028937;28;19925;-88
2022/07/24 08:47:01;;;;;;;;;;;24.50;53.30;;;;;;5024572;28;19913;-87
2022/07/24 08:49:27;;;;;;;;;;;24.50;53.90;;;;;;5038873;28;19914;-88
2022/07/24 08:51:58;;;;;;;;;;;24.50;54.10;;;;;;5038061;28;19913;-89
2022/07/24 08:54:26;;;;;;;;;;;24.70;53.10;;;;;;5023431;28;19980;-88
2022/07/24 08:56:55;;;;;;;;;;;24.80;52.70;;;;;;5051001;28;19940;-88
2022/07/24 08:59:21;;;;;;;;;;;24.70;53.20;;;;;;5025598;28;19980;-87
2022/07/24 09:01:47;;;;;;;;;;;24.80;52.90;;;;;;5017168;28;20125;-88
2022/07/24 09:04:32;;;;;;;;;;;24.80;53.10;;;;;;5041183;28;19913;-88
2022/07/24 09:07:03;;;;;;;;;;;24.90;54.50;;;;;;5013649;28;19914;-86
2022/07/24 09:09:28;;;;;;;;;;;24.90;53.00;;;;;;5018270;28;19910;-88
2022/07/24 09:12:12;;;;;;;;;;;25.00;54.10;;;;;;5032805;28;19975;-88
2022/07/24 09:14:39;;;;;;;;;;;25.00;54.00;;;;;;5029915;28;19932;-88
2022/07/24 09:17:05;;;;;;;;;;;25.10;53.40;;;;;;5010315;28;19913;-88
2022/07/24 09:19:44;;;;;;;;;;;25.10;53.20;;;;;;5014337;28;19913;-87
2022/07/24 09:22:24;;;;;;;;;;;25.10;53.60;;;;;;5015575;28;20364;-89
2022/07/24 09:25:05;;;;;;;;;;;25.20;53.00;;;;;;5028279;28;20394;-88
2022/07/24 09:27:31;;;;;;;;;;;25.40;52.50;;;;;;5022524;28;19917;-89
2022/07/24 09:30:00;;;;;;;;;;;25.30;53.30;;;;;;5007869;28;19957;-87
2022/07/24 09:32:25;;;;;;;;;;;25.30;52.80;;;;;;5015848;28;19916;-88
2022/07/24 09:34:57;;;;;;;;;;;25.40;52.70;;;;;;5024220;28;19909;-88
2022/07/24 09:37:28;;;;;;;;;;;25.40;52.70;;;;;;5013715;28;19933;-88
2022/07/24 09:40:07;;;;;;;;;;;25.50;52.40;;;;;;5020041;28;20380;-87
2022/07/24 09:42:51;;;;;;;;;;;25.50;53.70;;;;;;5010685;28;19917;-87
2022/07/24 09:45:20;;;;;;;;;;;25.50;52.70;;;;;;5031791;28;19924;-89
2022/07/24 09:48:02;;;;;;;;;;;25.50;52.10;;;;;;5028396;28;19917;-87
2022/07/24 09:50:30;;;;;;;;;;;25.60;51.60;;;;;;5015946;28;19913;-88
2022/07/24 09:52:56;;;;;;;;;;;25.60;52.40;;;;;;5035162;28;19960;-88
2022/07/24 09:55:32;;;;;;;;;;;25.70;51.60;;;;;;5008365;28;20365;-87
2022/07/24 09:58:00;;;;;;;;;;;25.80;52.10;;;;;;5011046;28;19917;-88
2022/07/24 10:00:36;;;;;;;;;;;25.90;51.10;;;;;;5014815;28;19909;-87
2022/07/24 10:03:05;;;;;;;;;;;26.00;50.60;;;;;;5000577;28;20027;-87
2022/07/24 10:05:33;;;;;;;;;;;26.00;50.90;;;;;;5031228;28;19917;-86
2022/07/24 10:07:59;;;;;;;;;;;26.00;51.30;;;;;;5008421;28;19909;-85
2022/07/24 10:10:26;;;;;;;;;;;26.10;49.60;;;;;;5012996;28;20012;-86
2022/07/24 10:12:52;;;;;;;;;;;26.10;50.60;;;;;;5008850;28;19915;-85
2022/07/24 10:15:17;;;;;;;;;;;26.20;50.60;;;;;;5031667;28;20287;-88
2022/07/24 10:18:07;;;;;;;;;;;26.20;49.60;;;;;;5007309;28;19914;-87
2022/07/24 10:20:40;;;;;;;;;;;26.10;48.80;;;;;;5011228;28;19917;-88
2022/07/24 10:23:05;;;;;;;;;;;26.00;51.70;;;;;;5029301;28;19917;-87
2022/07/24 10:25:51;;;;;;;;;;;26.20;50.30;;;;;;4998377;28;19920;-85
2022/07/24 10:28:21;;;;;;;;;;;26.30;50.70;;;;;;5014594;28;20330;-84
2022/07/24 10:30:47;;;;;;;;;;;26.60;49.90;;;;;;5012750;28;19913;-85
2022/07/24 10:33:12;;;;;;;;;;;26.50;49.70;;;;;;5016928;28;20375;-86
2022/07/24 10:35:39;;;;;;;;;;;26.60;50.00;;;;;;5008802;28;20044;-87
2022/07/24 10:38:09;;;;;;;;;;;26.60;49.20;;;;;;5016963;28;19920;-85
2022/07/24 10:40:50;;;;;;;;;;;26.60;49.30;;;;;;5029241;28;20348;-87
2022/07/24 10:43:15;;;;;;;;;;;26.80;48.90;;;;;;5012591;28;20376;-86
2022/07/24 10:45:41;;;;;;;;;;;26.70;49.50;;;;;;4994796;28;19913;-86
2022/07/24 10:48:25;;;;;;;;;;;26.90;48.70;;;;;;4995249;28;19995;-86
2022/07/24 10:51:05;;;;;;;;;;;26.90;47.80;;;;;;5005769;28;19913;-86
2022/07/24 10:53:37;;;;;;;;;;;26.90;48.20;;;;;;5012130;28;19913;-86
2022/07/24 10:56:19;;;;;;;;;;;27.00;48.40;;;;;;4996115;28;19933;-86
2022/07/24 10:58:51;;;;;;;;;;;27.20;49.10;;;;;;5001818;28;19909;-86
2022/07/24 11:01:53;;;;;;;;;;;27.30;48.00;;;;;;5014720;28;19909;-86
2022/07/24 11:04:18;;;;;;;;;;;27.50;47.90;;;;;;4908264;29;19915;-86
2022/07/24 11:06:48;;;;;;;;;;;27.50;46.20;;;;;;5008677;28;20391;-86
2022/07/24 11:09:14;;;;;;;;;;;27.40;46.00;;;;;;5012824;28;19913;-85
2022/07/24 11:12:03;;;;;;;;;;;27.50;46.90;;;;;;5008900;28;19913;-86
2022/07/24 11:14:38;;;;;;;;;;;27.50;45.80;;;;;;5013428;28;20029;-86
2022/07/24 11:17:24;;;;;;;;;;;27.50;46.30;;;;;;5049862;28;19913;-87
2022/07/24 11:19:55;;;;;;;;;;;27.50;46.60;;;;;;5012149;28;19913;-86
2022/07/24 11:22:36;;;;;;;;;;;27.50;46.20;;;;;;5028607;28;20403;-86
2022/07/24 11:25:06;;;;;;;;;;;27.60;46.80;;;;;;5019692;28;19916;-87
2022/07/24 11:27:40;;;;;;;;;;;27.80;46.70;;;;;;5016914;28;19929;-87
2022/07/24 11:30:06;;;;;;;;;;;27.80;46.10;;;;;;5016450;28;19914;-85
2022/07/24 11:32:31;;;;;;;;;;;27.80;44.80;;;;;;5039814;28;19932;-87
2022/07/24 11:34:57;;;;;;;;;;;27.90;45.10;;;;;;5019783;28;19921;-86
2022/07/24 11:37:29;;;;;;;;;;;28.00;45.20;;;;;;5039103;28;19982;-85
2022/07/24 11:39:54;;;;;;;;;;;27.90;44.90;;;;;;5027670;28;19952;-86
2022/07/24 11:42:20;;;;;;;;;;;27.90;44.70;;;;;;5026098;28;19921;-85
2022/07/24 11:44:46;;;;;;;;;;;28.00;44.80;;;;;;5024752;28;19917;-86
2022/07/24 11:47:19;;;;;;;;;;;28.00;45.60;;;;;;5023979;28;19945;-86
2022/07/24 11:49:44;;;;;;;;;;;27.90;46.60;;;;;;5020985;28;20203;-87
2022/07/24 11:52:14;;;;;;;;;;;28.10;44.80;;;;;;5037769;28;19928;-89
2022/07/24 11:54:40;;;;;;;;;;;28.10;44.50;;;;;;5062553;28;19932;-89
2022/07/24 11:57:15;;;;;;;;;;;28.10;44.50;;;;;;5042389;28;19917;-87
2022/07/24 11:59:40;;;;;;;;;;;28.10;43.40;;;;;;5032887;28;19913;-89
2022/07/24 12:02:07;;;;;;;;;;;28.10;42.60;;;;;;5026118;28;19913;-87
2022/07/24 12:04:33;;;;;;;;;;;28.10;43.70;;;;;;5018169;28;19976;-87
2022/07/24 12:06:59;;;;;;;;;;;28.00;43.20;;;;;;5025986;28;19913;-87
2022/07/24 12:09:25;;;;;;;;;;;28.00;44.00;;;;;;5026479;28;20386;-87
2022/07/24 12:11:51;;;;;;;;;;;28.10;44.20;;;;;;5050087;28;19912;-86
2022/07/24 12:14:18;;;;;;;;;;;28.10;44.90;;;;;;5043734;28;19936;-87
2022/07/24 12:16:50;;;;;;;;;;;28.20;43.80;;;;;;5056533;28;19984;-88
2022/07/24 12:19:16;;;;;;;;;;;28.30;42.90;;;;;;5047497;28;20430;-87
2022/07/24 12:21:42;;;;;;;;;;;28.10;43.40;;;;;;5023470;28;19917;-86
2022/07/24 12:24:08;;;;;;;;;;;28.10;43.30;;;;;;5049919;28;20005;-87
2022/07/24 12:26:33;;;;;;;;;;;28.10;43.90;;;;;;5046703;28;19963;-86
2022/07/24 12:29:11;;;;;;;;;;;28.10;42.20;;;;;;5031455;28;19924;-86
2022/07/24 12:31:37;;;;;;;;;;;28.20;43.20;;;;;;5026604;28;19921;-87
2022/07/24 12:34:03;;;;;;;;;;;28.20;43.80;;;;;;5015648;28;19924;-86
2022/07/24 12:36:29;;;;;;;;;;;28.30;44.10;;;;;;5024314;28;19913;-89
2022/07/24 12:38:56;;;;;;;;;;;28.30;42.80;;;;;;5008388;28;20376;-87
2022/07/24 12:41:23;;;;;;;;;;;28.20;41.60;;;;;;5009290;28;20384;-87
2022/07/24 12:43:58;;;;;;;;;;;28.20;41.30;;;;;;5097553;22;20023;-84
2022/07/24 12:46:44;;;;;;;;;;;28.30;41.70;;;;;;5039073;28;19932;-84
2022/07/24 12:49:10;;;;;;;;;;;28.20;42.80;;;;;;5042404;28;19913;-85
2022/07/24 12:51:55;;;;;;;;;;;28.30;42.10;;;;;;5069014;28;19923;-84
2022/07/24 12:54:25;;;;;;;;;;;28.20;42.90;;;;;;5068696;28;19942;-84
2022/07/24 12:56:52;;;;;;;;;;;28.30;44.80;;;;;;5048550;28;20349;-83
2022/07/24 12:59:28;;;;;;;;;;;28.40;44.80;;;;;;5057891;28;19917;-84
2022/07/24 13:01:55;;;;;;;;;;;28.40;43.70;;;;;;5042601;28;19916;-85
2022/07/24 13:04:21;;;;;;;;;;;28.50;44.10;;;;;;5049774;28;19935;-84
2022/07/24 13:06:48;;;;;;;;;;;28.30;44.30;;;;;;5044802;28;19912;-84
2022/07/24 13:09:15;;;;;;;;;;;28.30;44.10;;;;;;5046163;28;19967;-82
2022/07/24 13:11:41;;;;;;;;;;;28.30;42.40;;;;;;5061253;28;19935;-84
2022/07/24 13:14:07;;;;;;;;;;;28.50;42.70;;;;;;5066246;28;19916;-84
2022/07/24 13:16:34;;;;;;;;;;;28.50;41.70;;;;;;5043095;28;19941;-84
2022/07/24 13:19:00;;;;;;;;;;;28.50;42.70;;;;;;5041989;28;19963;-82
2022/07/24 13:21:26;;;;;;;;;;;28.70;42.70;;;;;;5040642;28;19964;-85
2022/07/24 13:23:52;;;;;;;;;;;28.50;43.10;;;;;;5046773;28;19956;-86
2022/07/24 13:26:18;;;;;;;;;;;28.60;42.60;;;;;;5045706;28;19932;-87
2022/07/24 13:28:44;;;;;;;;;;;28.60;42.40;;;;;;5043534;28;19935;-87
2022/07/24 13:31:09;;;;;;;;;;;28.60;41.70;;;;;;5053224;28;19912;-86
2022/07/24 13:33:35;;;;;;;;;;;28.60;41.70;;;;;;5040415;28;19917;-86
2022/07/24 13:36:00;;;;;;;;;;;28.80;41.90;;;;;;5038027;28;19966;-87
2022/07/24 13:38:25;;;;;;;;;;;28.90;41.80;;;;;;5037304;28;19913;-85
2022/07/24 13:40:51;;;;;;;;;;;28.90;42.40;;;;;;5042347;28;19990;-85
2022/07/24 13:43:17;;;;;;;;;;;29.10;42.20;;;;;;5038601;28;21063;-84
2022/07/24 13:45:42;;;;;;;;;;;29.00;42.80;;;;;;5040348;28;20015;-85
2022/07/24 13:48:08;;;;;;;;;;;29.00;42.50;;;;;;5041578;28;19917;-85
2022/07/24 13:50:33;;;;;;;;;;;29.00;42.10;;;;;;5048716;28;19919;-86
2022/07/24 13:52:59;;;;;;;;;;;29.10;42.10;;;;;;5044720;28;19908;-88
2022/07/24 13:55:24;;;;;;;;;;;29.00;42.20;;;;;;5040343;28;19935;-86
2022/07/24 13:57:49;;;;;;;;;;;28.70;42.40;;;;;;5037642;28;19913;-87
2022/07/24 14:00:15;;;;;;;;;;;28.70;43.20;;;;;;5036302;28;20393;-86
2022/07/24 14:02:41;;;;;;;;;;;28.80;42.20;;;;;;5034095;28;20379;-88
2022/07/24 14:05:06;;;;;;;;;;;28.80;42.00;;;;;;5043297;28;19920;-89
2022/07/24 14:07:32;;;;;;;;;;;29.10;42.20;;;;;;5060632;28;19901;-89
2022/07/24 14:09:57;;;;;;;;;;;29.10;42.30;;;;;;5042069;28;19916;-88
2022/07/24 14:12:32;;;;;;;;;;;29.10;42.20;;;;;;5036309;28;19913;-88
2022/07/24 14:14:57;;;;;;;;;;;29.10;41.70;;;;;;5051078;28;19921;-85
2022/07/24 14:17:23;;;;;;;;;;;29.00;41.50;;;;;;5033022;28;19913;-86
2022/07/24 14:19:48;;;;;;;;;;;29.00;42.50;;;;;;5036848;28;19917;-87